マセイオ/ズンビ・ドス・パウマーレス国際空港の過去48時間の天気

マセイオ/ズンビ・ドス・パウマーレス国際空港 (Maceio Aeroporto )

現在時刻: 5/25 22:38 -03 (5/26 01:38 UTC) 以下の時間は現地時間です。

過去48時間のMETAR気象情報
時間 風向 風速(m/s) 視程 気温(℃) 湿度(%) 気圧(hPa) 天気現象
25 22:00 北北東 1 5000m 22 94 1018 弱い雨 もや
25 21:00 西南西 1 10km以上 22 94 1018
25 20:20 南西 1 10km以上 22 94 1018
25 20:00 西 2 4000m 22 94 1018 もや
25 19:00 西南西 2 10km以上 22 94 1017
25 18:00 西 3 7000m 22 94 1017 弱い雨
25 17:00 南西 3 8000m 22 88 1017 弱い雨
25 16:00 南西 2 8000m 22 88 1016 弱い雨
25 15:16 西 2 8000m 22 94 1016 弱い雨
25 15:00 南南西 3 2000m 22 94 1016 雨 もや
25 14:18 西 2 8000m 22 94 1016 弱い雨
25 14:00 2 4000m 23 89 1017 弱い雨 もや
25 13:00 南南東 2 4000m 23 89 1017 弱い雨 もや
25 12:00 1 6000m 23 94 1018 弱い雨
25 11:00 北東 2 4000m 23 94 1019 雨 もや
25 10:00 2 6000m 23 94 1019 弱い雨
25 09:00 東南東 1 3000m 23 94 1019 弱い雨 もや
25 08:00 北東 1 5000m 23 94 1018 弱い雨 もや
25 07:00 北北西 1 5000m 23 94 1017 もや
25 06:00 東北東 1 5000m 22 94 1017 弱い雨 もや
25 05:00 北東 3 7000m 22 94 1016 弱い雨
25 04:00 4 4000m 22 94 1016 弱い雨 もや
25 03:00 東北東 5 4000m 23 89 1016 弱い雨 もや
25 02:00 東北東 4 4000m 23 94 1016 弱い雨 もや
25 01:00 5 3000m 23 94 1016 雨 もや
25 00:00 東北東 3 4000m 23 94 1016 弱い雨 もや
24 23:00 東南東 4 4000m 23 94 1016 弱い雨 もや
24 22:00 1 10km以上 23 94 1016
24 21:00 3 7000m 23 94 1016 弱い雨
24 20:00 南東 4 7000m 23 94 1016 弱い雨
24 19:00 4 10km以上 23 94 1016
24 18:00 南東 3 4000m 23 94 1016 雨 もや
24 17:00 4 4000m 24 89 1015 弱い雨
24 16:00 南南東 6 7000m 24 89 1015 弱い雨
24 15:00 2 9000m 24 89 1014 周辺でしゅう雨
24 14:00 5 4000m 26 79 1015 弱い雨 もや
24 13:00 3 4000m 24 83 1015 弱い雨 もや
24 12:00 3 5000m 25 89 1016 もや
24 11:00 南南西 3 4000m 24 89 1017 弱い雨 もや
24 10:23 3 6000m 24 89 1017
24 10:00 3 2500m 23 94 1017 弱い雨 もや
24 09:19 南南西 3 2000m 23 94 1017 雨 もや
24 09:00 南南西 4 4000m 23 94 1017 弱い雨 もや
24 08:00 南西 4 3000m 23 89 1017 弱い雨 もや
24 07:27 南西 5 2500m 23 89 1017 雨 もや
24 07:00 南南西 4 9000m 23 94 1016 弱い雨
24 06:00 南南西 5 10km以上 22 94 1016
24 05:00 南南東 4 8000m 23 89 1016 弱い雨
24 04:00 南南東 4 7000m 24 83 1016 弱い雨
24 03:00 南南東 6 10km以上 24 83 1015
24 02:00 南東 4 5000m 23 94 1015 雨 もや
24 01:37 東南東 7 1500m 23 94 1015 雨 もや
24 01:00 南東 5 7000m 23 94 1016 弱い雨
24 00:00 北東 3 5000m 24 89 1016 弱いしゅう雨 もや
23 23:00 西南西 2 10km以上 24 89 1017
SBMO 260100Z 03001KT 5000 -RA BR BKN006 BKN017 22/21 Q1018
SBMO 260000Z 24001KT 9999 FEW004 BKN008 BKN090 22/21 Q1018
SBMO 252320Z 23001KT 9999 SCT003 BKN080 22/21 Q1018
SBMO 252300Z 27003KT 4000 BR BKN002 OVC070 22/21 Q1018
SBMO 252200Z 25004KT 9999 BKN003 OVC070 22/21 Q1017
SBMO 252100Z 27005KT 7000 -RA SCT002 SCT009 OVC070 22/21 Q1017
SBMO 252000Z 23005KT 8000 -RA FEW002 BKN009 OVC070 22/20 Q1017
SBMO 251900Z 22004KT 8000 -RA FEW004 BKN020 OVC070 22/20 Q1016
SBMO 251816Z 26004KT 8000 -RA FEW004 SCT010 BKN020 22/21 Q1016 RERA
SBMO 251800Z 21005KT 2000 RA BR FEW003 BKN010 OVC070 22/21 Q1016
SBMO 251718Z 26004KT 8000 -RA FEW003 SCT007 BKN023 22/21 Q1016
SBMO 251700Z 17003KT 4000 -RA BR SCT003 BKN009 OVC027 23/21 Q1017
SBMO 251600Z 15003KT 4000 -RA BR BKN007 OVC026 23/21 Q1017
SBMO 251500Z 19001KT 6000 -RA BKN010 OVC028 23/22 Q1018 RERA
SBMO 251400Z 05004KT 4000 RA BR BKN009 OVC025 23/22 Q1019
SBMO 251300Z 01004KT 6000 -RA BKN009 OVC025 23/22 Q1019
SBMO 251200Z 11002KT 3000 -RA BR BKN009 OVC021 23/22 Q1019
SBMO 251100Z 05001KT 5000 -RA BR BKN009 OVC021 23/22 Q1018
SBMO 251000Z 33001KT 5000 BR BKN006 OVC093 23/22 Q1017
SBMO 250900Z 06002KT 5000 -RA BR FEW006 BKN010 OVC040 22/21 Q1017
SBMO 250800Z 04006KT 7000 -RA FEW005 BKN010 OVC040 22/21 Q1016
SBMO 250700Z 09007KT 4000 -RA BR SCT005 BKN014 OVC040 22/21 Q1016
SBMO 250600Z 07010KT 4000 -RA BR BKN006 OVC011 23/21 Q1016
SBMO 250500Z 06008KT 020V100 4000 -RA BR SCT005 BKN009 OVC040 23/22 Q1016 RERA
SBMO 250400Z 10010KT 3000 RA BR BKN006 BKN017 23/22 Q1016
SBMO 250300Z 07006KT 4000 -RA BR BKN006 BKN022 23/22 Q1016
SBMO 250200Z 12008KT 4000 -RA BR BKN004 OVC022 23/22 Q1016
SBMO 250100Z 09002KT 9999 SCT005 BKN020 OVC040 23/22 Q1016
SBMO 250000Z 17005KT 7000 -RA FEW007 SCT017 BKN070 23/22 Q1016
SBMO 242300Z 13008KT 7000 -RA SCT005 BKN015 OVC070 23/22 Q1016
SBMO 242200Z 18008KT 9999 SCT005 BKN015 BKN070 23/22 Q1016 RERA
SBMO 242100Z 13006KT 4000 RA BR SCT007 BKN015 FEW025TCU OVC070 23/22 Q1016
SBMO 242000Z 17007KT 4000 -RA FEW006 BKN015 OVC070 24/22 Q1015
SBMO 241900Z 15011KT 7000 3000NW -RA SCT007 BKN017 OVC070 24/22 Q1015
SBMO 241800Z 17004KT 9000 VCSH FEW011 BKN017 FEW026TCU BKN070 24/22 Q1014
SBMO 241700Z 17009KT 4000 -RA BR FEW013 BKN017 FEW025TCU 26/22 Q1015
SBMO 241600Z 18006KT 4000 -RA BR SCT011 BKN015 FEW025TCU 24/21 Q1015
SBMO 241500Z 19006KT 5000 BR FEW012 BKN017 FEW030TCU OVC070 25/23 Q1016
SBMO 241400Z 20006KT 4000 -RA BR BKN012 BKN015 OVC070 24/22 Q1017
SBMO 241323Z 19005KT 6000 SCT006 OVC015 24/22 Q1017
SBMO 241300Z 17006KT 2500 -RA BR BKN005 OVC014 23/22 Q1017 RERA
SBMO 241219Z 21005KT 2000 RA BR BKN005 OVC014 23/22 Q1017
SBMO 241200Z 21007KT 4000 -RA BR BKN006 OVC015 23/22 Q1017
SBMO 241100Z 22008KT 3000 -RA BR BKN006 OVC015 23/21 Q1017 RERA
SBMO 241027Z 22009KT 2500 RA BR BKN006 OVC015 23/21 Q1017
SBMO 241000Z 20007KT 9000 -RA BKN006 OVC015 23/22 Q1016
SBMO 240900Z 20009KT 9999 SCT006 OVC023 22/21 Q1016
SBMO 240800Z 15007KT 8000 -RA SCT006 OVC023 23/21 Q1016
SBMO 240700Z 16008KT 7000 -RA SCT015 OVC023 24/21 Q1016
SBMO 240600Z 15011KT 9999 BKN011 OVC020 24/21 Q1015 RERA
SBMO 240500Z 13008KT 5000 RA BR BKN010 OVC015 23/22 Q1015
SBMO 240437Z 11014KT 1500 RA BR BKN009 OVC015 23/22 Q1015
SBMO 240400Z 14009KT 7000 -RA BKN015 23/22 Q1016
SBMO 240300Z 04005KT 5000 -SHRA BR SCT009 BKN021 24/22 Q1016
SBMO 240200Z 24004KT 9999 BKN021 24/22 Q1017